Golden Valley, Nevada
Current Conditions -  °F | °C
As of 12:55 AM on Saturday 29 Nov 2014 (Local Time) from KRTS Reporting Station
Few Clouds Few Clouds  
Wind Chill: 25°   Ceiling: Unl
Heat Index: 37°   Visibility: 10mi
Dew Point: 30°   Wind: 29mph
Humidity: 75%   Direction: 230°SW
Pressure: 29.81"   Gusts: 44mph
Location:  39.7378°N, 119.889°W
Report Text: KRTS 290855Z AUTO 23025G38KT 10SM FEW065 03/M01 A2981 RMK AO2
Loading
Personal Weather Stations






























Interactive Weather Map New forecast layout! Learn more

10-Day Weather Forecast

Advertisements
Track Severe Weather on mobile